createdAt,value
2018-12-07T00:00:21.631Z,97777.21
2018-12-07T00:02:48.279Z,97773.58
2018-12-07T00:05:14.879Z,97778.80
2018-12-07T00:07:41.486Z,97781.94
2018-12-07T00:10:08.109Z,97772.27
2018-12-07T00:12:34.751Z,97767.55
2018-12-07T00:15:01.338Z,97758.89
2018-12-07T00:17:27.916Z,97765.44
2018-12-07T00:19:54.499Z,97759.69
2018-12-07T00:22:21.126Z,97755.77
2018-12-07T00:24:47.719Z,97748.94
2018-12-07T00:27:14.286Z,97754.74
2018-12-07T00:29:40.919Z,97752.58
2018-12-07T00:32:07.529Z,97749.73
2018-12-07T00:34:34.145Z,97743.70
2018-12-07T00:37:00.763Z,97743.20
2018-12-07T00:39:27.365Z,97734.49
2018-12-07T00:41:53.968Z,97734.55
2018-12-07T00:44:20.550Z,97734.03
2018-12-07T00:46:47.161Z,97741.89
2018-12-07T00:49:13.763Z,97737.96
2018-12-07T00:51:40.336Z,97738.98
2018-12-07T00:54:06.939Z,97738.19
2018-12-07T00:56:33.574Z,97734.03
2018-12-07T00:59:00.177Z,97734.27
2018-12-07T01:01:26.789Z,97734.27
2018-12-07T01:03:53.370Z,97734.27
2018-12-07T01:06:19.997Z,97740.30
2018-12-07T01:08:46.689Z,97742.40
2018-12-07T01:11:13.343Z,97743.94
2018-12-07T01:13:39.994Z,97742.91
2018-12-07T01:16:06.606Z,97740.80
2018-12-07T01:18:33.207Z,97743.42
2018-12-07T01:20:59.813Z,97735.86
2018-12-07T01:23:26.439Z,97738.19
2018-12-07T01:25:53.010Z,97733.09
2018-12-07T01:28:19.612Z,97731.36
2018-12-07T01:30:46.244Z,97727.21
2018-12-07T01:33:12.879Z,97724.83
2018-12-07T01:35:39.463Z,97726.93
2018-12-07T01:38:06.112Z,97720.38
2018-12-07T01:40:32.709Z,97720.38
2018-12-07T01:42:59.341Z,97724.31
2018-12-07T01:45:25.927Z,97721.47
2018-12-07T01:47:52.520Z,97717.77
2018-12-07T01:50:19.190Z,97713.33
2018-12-07T01:52:45.773Z,97713.84
2018-12-07T01:55:12.412Z,97706.51
2018-12-07T01:57:39.021Z,97708.33
2018-12-07T02:00:05.618Z,97697.34
2018-12-07T02:02:32.231Z,97689.50
2018-12-07T02:04:58.858Z,97686.38
2018-12-07T02:07:25.479Z,97679.55
2018-12-07T02:09:52.135Z,97681.14
2018-12-07T02:12:18.784Z,97679.55
2018-12-07T02:14:45.430Z,97680.34
2018-12-07T02:17:12.010Z,97674.09
2018-12-07T02:19:38.644Z,97671.98
2018-12-07T02:22:05.230Z,97670.39
2018-12-07T02:24:31.827Z,97674.83
2018-12-07T02:26:58.425Z,97667.77
2018-12-07T02:29:25.059Z,97663.05
2018-12-07T02:31:51.628Z,97665.44
2018-12-07T02:34:18.244Z,97660.72
2018-12-07T02:36:44.865Z,97662.23
2018-12-07T02:39:11.520Z,97657.82
2018-12-07T02:41:38.149Z,97659.41
2018-12-07T02:44:04.767Z,97656.20
2018-12-07T02:46:31.354Z,97645.45
2018-12-07T02:48:57.943Z,97643.43
2018-12-07T02:51:24.559Z,97641.30
2018-12-07T02:53:51.140Z,97639.98
2018-12-07T02:56:17.758Z,97636.06
2018-12-07T02:58:44.395Z,97637.38
2018-12-07T03:01:10.983Z,97634.27
2018-12-07T03:03:37.577Z,97634.56
2018-12-07T03:06:04.164Z,97632.88
2018-12-07T03:08:30.793Z,97635.86
2018-12-07T03:10:57.406Z,97627.22
2018-12-07T03:13:24.047Z,97617.27
2018-12-07T03:15:50.677Z,97615.13
2018-12-07T03:18:17.305Z,97615.64
2018-12-07T03:20:43.953Z,97613.63
2018-12-07T03:23:10.609Z,97610.73
2018-12-07T03:25:37.227Z,97610.92
2018-12-07T03:28:03.856Z,97613.03
2018-12-07T03:30:30.459Z,97602.56
2018-12-07T03:32:57.073Z,97604.67
2018-12-07T03:35:23.686Z,97593.30
2018-12-07T03:37:50.296Z,97599.16
2018-12-07T03:40:16.902Z,97586.30
2018-12-07T03:42:43.543Z,97593.41
2018-12-07T03:45:10.224Z,97589.48
2018-12-07T03:47:36.846Z,97596.02
2018-12-07T03:50:03.414Z,97598.44
2018-12-07T03:52:30.018Z,97592.61
2018-12-07T03:54:56.593Z,97582.66
2018-12-07T03:57:23.200Z,97584.48
2018-12-07T03:59:49.799Z,97584.99
2018-12-07T04:02:16.400Z,97580.56
2018-12-07T04:04:43.072Z,97577.94
2018-12-07T04:07:09.753Z,97582.89
2018-12-07T04:09:36.357Z,97579.53
2018-12-07T04:12:02.939Z,97566.45
2018-12-07T04:14:29.563Z,97562.75
2018-12-07T04:16:56.216Z,97571.12
2018-12-07T04:19:22.849Z,97564.06
2018-12-07T04:21:49.464Z,97571.40
2018-12-07T04:24:16.078Z,97561.96
2018-12-07T04:26:42.701Z,97561.17
2018-12-07T04:29:09.296Z,97562.24
2018-12-07T04:31:35.935Z,97565.89
2018-12-07T04:34:02.538Z,97560.66
2018-12-07T04:36:29.151Z,97558.32
2018-12-07T04:38:55.764Z,97558.04
2018-12-07T04:41:22.360Z,97556.22
2018-12-07T04:43:48.959Z,97551.27
2018-12-07T04:46:15.634Z,97550.98
2018-12-07T04:48:42.215Z,97546.55
2018-12-07T04:51:08.820Z,97546.03
2018-12-07T04:53:35.411Z,97538.93
2018-12-07T04:56:02.013Z,97538.70
2018-12-07T04:58:28.632Z,97531.08
2018-12-07T05:00:55.259Z,97536.31
2018-12-07T05:03:21.880Z,97531.36
2018-12-07T05:05:48.450Z,97526.64
2018-12-07T05:08:15.089Z,97529.55
2018-12-07T05:10:41.694Z,97528.47
2018-12-07T05:13:08.296Z,97529.77
2018-12-07T05:15:34.900Z,97517.20
2018-12-07T05:18:01.492Z,97524.83
2018-12-07T05:20:28.112Z,97512.95
2018-12-07T05:22:54.711Z,97522.16
2018-12-07T05:25:21.312Z,97525.05
2018-12-07T05:27:47.945Z,97526.64
2018-12-07T05:30:14.528Z,97520.85
2018-12-07T05:32:41.168Z,97521.64
2018-12-07T05:35:07.821Z,97516.70
2018-12-07T05:37:34.560Z,97513.80
2018-12-07T05:40:01.177Z,97511.46
2018-12-07T05:42:27.760Z,97509.13
2018-12-07T05:44:54.362Z,97515.10
2018-12-07T05:47:20.943Z,97516.41
2018-12-07T05:49:47.530Z,97518.75
2018-12-07T05:52:14.115Z,97516.13
2018-12-07T05:54:40.709Z,97512.72
2018-12-07T05:57:07.341Z,97513.52
2018-12-07T05:59:34.024Z,97509.59
2018-12-07T06:02:00.657Z,97516.70
2018-12-07T06:04:27.382Z,97514.31
2018-12-07T06:06:54.035Z,97511.69
2018-12-07T06:09:20.658Z,97514.31
2018-12-07T06:11:47.272Z,97506.18
2018-12-07T06:14:13.904Z,97505.95
2018-12-07T06:16:40.512Z,97504.64
2018-12-07T06:19:07.123Z,97504.36
2018-12-07T06:21:33.737Z,97506.18
2018-12-07T06:24:00.376Z,97503.56
2018-12-07T06:26:26.950Z,97502.82
2018-12-07T06:28:53.602Z,97498.84
2018-12-07T06:31:20.195Z,97503.56
2018-12-07T06:33:46.811Z,97495.20
2018-12-07T06:36:13.453Z,97493.10
2018-12-07T06:38:40.052Z,97489.69
2018-12-07T06:41:06.636Z,97487.08
2018-12-07T06:43:33.268Z,97492.31
2018-12-07T06:45:59.879Z,97485.25
2018-12-07T06:48:26.516Z,97485.25
2018-12-07T06:50:53.098Z,97484.45
2018-12-07T06:53:19.725Z,97483.16
2018-12-07T06:55:46.331Z,97472.17
2018-12-07T06:58:12.935Z,97478.48
2018-12-07T07:00:39.578Z,97470.86
2018-12-07T07:03:06.182Z,97467.97
2018-12-07T07:05:32.807Z,97470.86
2018-12-07T07:07:59.443Z,97471.61
2018-12-07T07:10:26.063Z,97470.86
2018-12-07T07:12:52.675Z,97474.00
2018-12-07T07:15:19.300Z,97469.28
2018-12-07T07:17:45.912Z,97469.80
2018-12-07T07:20:12.549Z,97469.28
2018-12-07T07:22:39.164Z,97461.43
2018-12-07T07:25:05.811Z,97459.61
2018-12-07T07:27:32.430Z,97457.73
2018-12-07T07:29:59.065Z,97452.78
2018-12-07T07:32:25.672Z,97448.86
2018-12-07T07:34:52.276Z,97442.84
2018-12-07T07:37:18.870Z,97439.70
2018-12-07T07:39:45.493Z,97436.58
2018-12-07T07:42:12.078Z,97435.27
2018-12-07T07:44:38.802Z,97441.25
2018-12-07T07:47:05.453Z,97430.78
2018-12-07T07:49:32.069Z,97438.91
2018-12-07T07:51:58.685Z,97437.61
2018-12-07T07:54:25.287Z,97439.70
2018-12-07T07:56:51.940Z,97433.68
2018-12-07T07:59:18.527Z,97437.61
2018-12-07T08:01:45.198Z,97432.37
2018-12-07T08:04:11.837Z,97425.84
2018-12-07T08:06:38.499Z,97420.56
2018-12-07T08:09:05.209Z,97416.40
2018-12-07T08:11:31.850Z,97416.91
2018-12-07T08:13:58.469Z,97417.19
2018-12-07T08:16:25.102Z,97410.37
2018-12-07T08:18:51.739Z,97409.06
2018-12-07T08:21:18.349Z,97416.91
2018-12-07T08:23:44.964Z,97406.73
2018-12-07T08:26:11.567Z,97400.19
2018-12-07T08:28:38.227Z,97400.70
2018-12-07T08:31:04.857Z,97383.70
2018-12-07T08:33:31.491Z,97375.22
2018-12-07T08:35:58.124Z,97380.58
2018-12-07T08:38:24.715Z,97375.30
2018-12-07T08:40:51.366Z,97378.98
2018-12-07T08:43:18.050Z,97368.52
2018-12-07T08:45:44.657Z,97374.55
2018-12-07T08:48:11.275Z,97364.32
2018-12-07T08:50:37.871Z,97363.29
2018-12-07T08:53:04.495Z,97372.17
2018-12-07T08:55:31.077Z,97364.32
2018-12-07T08:57:57.707Z,97340.69
2018-12-07T09:00:24.344Z,97353.51
2018-12-07T09:02:50.981Z,97363.81
2018-12-07T09:05:17.637Z,97367.45
2018-12-07T09:07:44.235Z,97364.87
2018-12-07T09:10:10.860Z,97361.98
2018-12-07T09:12:37.484Z,97359.88
2018-12-07T09:15:04.143Z,97363.58
2018-12-07T09:17:30.777Z,97363.02
2018-12-07T09:19:57.389Z,97352.83
2018-12-07T09:22:24.010Z,97350.73
2018-12-07T09:24:50.626Z,97353.58
2018-12-07T09:27:17.263Z,97345.22
2018-12-07T09:29:43.852Z,97345.78
2018-12-07T09:32:10.463Z,97338.45
2018-12-07T09:34:37.066Z,97334.23
2018-12-07T09:37:03.694Z,97330.83
2018-12-07T09:39:30.304Z,97323.15
2018-12-07T09:41:56.912Z,97318.27
2018-12-07T09:44:23.524Z,97308.80
2018-12-07T09:46:50.134Z,97298.66
2018-12-07T09:49:16.735Z,97303.88
2018-12-07T09:51:43.372Z,97293.94
2018-12-07T09:54:09.960Z,97288.70
2018-12-07T09:56:36.548Z,97275.62
2018-12-07T09:59:03.138Z,97272.50
2018-12-07T10:01:29.802Z,97268.58
2018-12-07T10:03:56.431Z,97262.83
2018-12-07T10:06:23.019Z,97265.95
2018-12-07T10:08:49.654Z,97265.66
2018-12-07T10:11:16.244Z,97258.91
2018-12-07T10:13:42.867Z,97257.80
2018-12-07T10:16:09.525Z,97250.27
2018-12-07T10:18:36.190Z,97238.70
2018-12-07T10:21:02.763Z,97236.39
2018-12-07T10:23:29.324Z,97231.95
2018-12-07T10:25:55.920Z,97222.01
2018-12-07T10:28:22.529Z,97215.23
2018-12-07T10:30:49.127Z,97212.34
2018-12-07T10:33:15.725Z,97205.80
2018-12-07T10:35:42.344Z,97200.27
2018-12-07T10:38:08.962Z,97196.64
2018-12-07T10:40:35.561Z,97192.20
2018-12-07T10:43:02.165Z,97179.58
2018-12-07T10:45:28.794Z,97174.63
2018-12-07T10:47:55.425Z,97167.81
2018-12-07T10:50:22.028Z,97164.16
2018-12-07T10:52:48.594Z,97168.09
2018-12-07T10:55:15.172Z,97161.86
2018-12-07T10:57:41.806Z,97164.47
2018-12-07T11:00:08.916Z,97161.03
2018-12-07T11:02:41.163Z,97164.95
2018-12-07T11:05:13.260Z,97150.57
2018-12-07T11:07:45.484Z,97147.95
2018-12-07T11:10:17.703Z,97139.62
2018-12-07T11:12:49.845Z,97137.01
2018-12-07T11:15:22.167Z,97131.78
2018-12-07T11:17:54.375Z,97130.95
2018-12-07T11:20:26.639Z,97126.23
2018-12-07T11:22:58.857Z,97121.53
2018-12-07T11:25:31.193Z,97117.09
2018-12-07T11:28:09.710Z,97116.81
2018-12-07T11:30:41.899Z,97107.14
2018-12-07T11:33:14.366Z,97101.91
2018-12-07T11:35:42.280Z,97098.27
2018-12-07T11:38:09.020Z,97091.17
2018-12-07T11:40:35.645Z,97074.45
2018-12-07T11:43:02.257Z,97072.88
2018-12-07T11:45:28.870Z,97071.56
2018-12-07T11:47:55.499Z,97063.72
2018-12-07T11:50:22.087Z,97058.48
2018-12-07T11:52:48.725Z,97051.43
2018-12-07T11:55:15.306Z,97047.23
2018-12-07T11:57:41.886Z,97047.51
2018-12-07T12:00:08.588Z,97045.92
2018-12-07T12:02:35.245Z,97035.22
2018-12-07T12:05:01.863Z,97031.81
2018-12-07T12:07:28.460Z,97023.45
2018-12-07T12:09:55.154Z,97017.16
2018-12-07T12:12:21.754Z,97008.80
2018-12-07T12:14:48.376Z,97001.74
2018-12-07T12:17:15.011Z,97005.39
2018-12-07T12:19:41.664Z,97005.39
2018-12-07T12:22:08.266Z,96994.66
2018-12-07T12:24:34.832Z,96990.48
2018-12-07T12:27:01.424Z,96977.41
2018-12-07T12:29:28.019Z,96969.05
2018-12-07T12:31:54.637Z,96955.43
2018-12-07T12:34:21.253Z,96952.05
2018-12-07T12:36:47.922Z,96939.73
2018-12-07T12:39:14.582Z,96939.22
2018-12-07T12:41:46.731Z,96927.97
2018-12-07T12:44:09.797Z,96921.19
2018-12-07T12:46:36.394Z,96914.37
2018-12-07T12:49:03.021Z,96907.32
2018-12-07T12:51:29.588Z,96912.83
2018-12-07T12:53:56.168Z,96906.80
2018-12-07T12:56:22.732Z,96905.50
2018-12-07T12:58:49.336Z,96892.16
2018-12-07T13:01:15.940Z,96897.11
2018-12-07T13:03:42.600Z,96883.24
2018-12-07T13:06:09.231Z,96883.77
2018-12-07T13:08:35.849Z,96877.50
2018-12-07T13:11:02.493Z,96880.62
2018-12-07T13:13:29.123Z,96877.77
2018-12-07T13:15:55.742Z,96879.07
2018-12-07T13:18:22.376Z,96871.48
2018-12-07T13:20:48.977Z,96870.44
2018-12-07T13:23:15.617Z,96873.05
2018-12-07T13:25:42.215Z,96873.58
2018-12-07T13:28:08.859Z,96866.79
2018-12-07T13:30:35.511Z,96864.69
2018-12-07T13:33:02.172Z,96864.96
2018-12-07T13:35:28.860Z,96871.23
2018-12-07T13:37:55.453Z,96859.70
2018-12-07T13:40:22.095Z,96860.50
2018-12-07T13:42:48.952Z,96855.02
2018-12-07T13:45:15.728Z,96861.02
2018-12-07T13:47:42.587Z,96858.40
2018-12-07T13:50:15.209Z,96855.00
2018-12-07T13:52:41.933Z,96856.05
2018-12-07T13:55:08.920Z,96856.05
2018-12-07T13:57:35.720Z,96842.98
2018-12-07T14:00:02.490Z,96844.29
2018-12-07T14:02:29.209Z,96838.27
2018-12-07T14:04:56.006Z,96843.50
2018-12-07T14:07:22.742Z,96824.61
2018-12-07T14:09:49.594Z,96829.64
2018-12-07T14:12:16.263Z,96830.42
2018-12-07T14:14:43.042Z,96825.72
2018-12-07T14:17:09.743Z,96815.50
2018-12-07T14:19:36.488Z,96813.67
2018-12-07T14:22:03.201Z,96814.73
2018-12-07T14:24:30.013Z,96815.52
2018-12-07T14:26:59.653Z,96814.47
2018-12-07T14:29:25.289Z,96812.64
2018-12-07T14:31:52.088Z,96809.75
2018-12-07T14:34:18.788Z,96804.00
2018-12-07T14:36:45.515Z,96807.14
2018-12-07T14:39:12.208Z,96802.95
2018-12-07T14:41:39.027Z,96797.47
2018-12-07T14:44:05.777Z,96799.56
2018-12-07T14:46:32.509Z,96783.09
2018-12-07T14:48:59.431Z,96781.78
2018-12-07T14:51:26.231Z,96779.69
2018-12-07T14:53:52.893Z,96756.66
2018-12-07T14:56:20.925Z,96750.12
2018-12-07T14:58:47.769Z,96776.55
2018-12-07T15:01:14.420Z,96785.70
2018-12-07T15:03:41.055Z,96784.39
2018-12-07T15:06:07.848Z,96774.45
2018-12-07T15:08:34.631Z,96763.20
2018-12-07T15:11:01.325Z,96750.12
2018-12-07T15:13:27.974Z,96748.30
2018-12-07T15:15:54.644Z,96731.03
2018-12-07T15:18:21.438Z,96717.96
2018-12-07T15:20:48.340Z,96707.50
2018-12-07T15:23:15.152Z,96694.43
2018-12-07T15:25:41.896Z,96697.05
2018-12-07T15:28:08.596Z,96674.03
2018-12-07T15:30:35.408Z,96668.28
2018-12-07T15:33:02.142Z,96668.53
2018-12-07T15:35:28.950Z,96630.51
2018-12-07T15:37:55.651Z,96641.62
2018-12-07T15:40:22.276Z,96638.73
2018-12-07T15:42:49.074Z,96642.14
2018-12-07T15:45:15.907Z,96633.50
2018-12-07T15:47:42.659Z,96635.59
2018-12-07T15:50:09.507Z,96637.42
2018-12-07T15:52:36.314Z,96637.95
2018-12-07T15:55:03.148Z,96624.63
2018-12-07T15:57:30.117Z,96603.69
2018-12-07T15:59:56.974Z,96592.98
2018-12-07T16:02:23.844Z,96598.45
2018-12-07T16:04:50.528Z,96598.72
2018-12-07T16:07:17.285Z,96596.38
2018-12-07T16:09:44.025Z,96567.62
2018-12-07T16:12:10.868Z,96592.19
2018-12-07T16:14:37.625Z,96595.32
2018-12-07T16:17:04.541Z,96592.98
2018-12-07T16:19:31.416Z,96580.42
2018-12-07T16:21:58.347Z,96586.96
2018-12-07T16:24:25.037Z,96582.25
2018-12-07T16:26:51.692Z,96589.58
2018-12-07T16:29:18.602Z,96590.09
2018-12-07T16:31:45.374Z,96582.77
2018-12-07T16:34:12.115Z,96573.89
2018-12-07T16:36:38.897Z,96571.00
2018-12-07T16:39:05.569Z,96570.22
2018-12-07T16:41:32.228Z,96579.64
2018-12-07T16:43:59.146Z,96575.97
2018-12-07T16:46:25.863Z,96571.80
2018-12-07T16:48:52.516Z,96541.14
2018-12-07T16:51:19.327Z,96536.49
2018-12-07T16:53:46.101Z,96535.44
2018-12-07T16:56:12.755Z,96544.08
2018-12-07T16:58:39.605Z,96551.91
2018-12-07T17:01:06.428Z,96543.55
2018-12-07T17:03:33.221Z,96548.00
2018-12-07T17:06:00.103Z,96543.55
2018-12-07T17:08:27.036Z,96540.94
2018-12-07T17:10:53.751Z,96546.69
2018-12-07T17:13:20.368Z,96543.02
2018-12-07T17:15:47.257Z,96546.16
2018-12-07T17:18:13.950Z,96539.88
2018-12-07T17:20:40.677Z,96533.61
2018-12-07T17:23:07.317Z,96542.77
2018-12-07T17:25:34.024Z,96545.11
2018-12-07T17:28:00.875Z,96538.58
2018-12-07T17:30:27.681Z,96540.15
2018-12-07T17:32:54.341Z,96547.48
2018-12-07T17:35:21.006Z,96533.87
2018-12-07T17:37:47.825Z,96525.77
2018-12-07T17:40:14.499Z,96527.08
2018-12-07T17:42:41.229Z,96533.09
2018-12-07T17:45:07.899Z,96544.86
2018-12-07T17:47:34.788Z,96541.45
2018-12-07T17:50:01.667Z,96542.50
2018-12-07T17:52:28.588Z,96543.80
2018-12-07T17:54:55.668Z,96545.11
2018-12-07T17:57:22.380Z,96531.21
2018-12-07T17:59:49.165Z,96534.13
2018-12-07T18:02:15.807Z,96537.80
2018-12-07T18:04:42.411Z,96529.69
2018-12-07T18:07:09.163Z,96528.13
2018-12-07T18:09:36.008Z,96528.13
2018-12-07T18:12:02.775Z,96530.73
2018-12-07T18:14:29.552Z,96507.20
2018-12-07T18:16:56.354Z,96504.59
2018-12-07T18:19:23.050Z,96509.30
2018-12-07T18:21:49.807Z,96517.66
2018-12-07T18:24:16.535Z,96512.17
2018-12-07T18:26:43.305Z,96516.09
2018-12-07T18:29:10.092Z,96509.55
2018-12-07T18:31:36.944Z,96513.99
2018-12-07T18:34:03.588Z,96517.39
2018-12-07T18:36:30.219Z,96521.06
2018-12-07T18:38:56.944Z,96510.60
2018-12-07T18:41:23.746Z,96503.53
2018-12-07T18:43:50.682Z,96497.52
2018-12-07T18:46:17.396Z,96492.29
2018-12-07T18:48:44.066Z,96480.01
2018-12-07T18:51:10.889Z,96472.69
2018-12-07T18:53:37.705Z,96479.22
2018-12-07T18:56:04.525Z,96478.70
2018-12-07T18:58:31.482Z,96493.86
2018-12-07T19:00:58.290Z,96489.16
2018-12-07T19:03:25.409Z,96475.56
2018-12-07T19:05:52.134Z,96479.48
2018-12-07T19:08:19.042Z,96484.20
2018-12-07T19:10:45.730Z,96492.81
2018-12-07T19:13:12.590Z,96482.09
2018-12-07T19:15:39.305Z,96482.09
2018-12-07T19:18:05.895Z,96484.45
2018-12-07T19:20:32.799Z,96478.44
2018-12-07T19:22:59.808Z,96467.45
2018-12-07T19:25:26.731Z,96467.45
2018-12-07T19:27:53.661Z,96469.28
2018-12-07T19:30:20.544Z,96484.45
2018-12-07T19:32:47.197Z,96475.30
2018-12-07T19:35:13.785Z,96475.30
2018-12-07T19:37:40.871Z,96477.62
2018-12-07T19:40:07.724Z,96484.45
2018-12-07T19:42:34.560Z,96481.05
2018-12-07T19:45:01.421Z,96492.81
2018-12-07T19:47:28.147Z,96499.05
2018-12-07T19:49:54.909Z,96495.66
2018-12-07T19:52:21.786Z,96500.66
2018-12-07T19:54:48.499Z,96494.34
2018-12-07T19:57:15.379Z,96485.46
2018-12-07T19:59:42.333Z,96468.98
2018-12-07T20:02:09.119Z,96477.62
2018-12-07T20:04:35.782Z,96471.61
2018-12-07T20:07:02.455Z,96468.20
2018-12-07T20:09:29.227Z,96472.91
2018-12-07T20:11:56.068Z,96475.52
2018-12-07T20:14:22.803Z,96484.16
2018-12-07T20:16:49.454Z,96485.98
2018-12-07T20:19:16.208Z,96484.67
2018-12-07T20:21:43.166Z,96484.67
2018-12-07T20:24:10.096Z,96486.23
2018-12-07T20:26:36.934Z,96487.81
2018-12-07T20:29:03.852Z,96485.20
2018-12-07T20:31:30.608Z,96491.73
2018-12-07T20:33:57.437Z,96489.12
2018-12-07T20:36:24.322Z,96487.02
2018-12-07T20:38:51.194Z,96487.55
2018-12-07T20:41:17.912Z,96482.84
2018-12-07T20:43:44.849Z,96486.76
2018-12-07T20:46:11.541Z,96492.51
2018-12-07T20:48:38.282Z,96484.41
2018-12-07T20:51:05.244Z,96484.41
2018-12-07T20:53:32.010Z,96478.91
2018-12-07T20:55:58.788Z,96471.34
2018-12-07T20:58:25.517Z,96465.58
2018-12-07T21:00:59.173Z,96465.58
2018-12-07T21:06:27.438Z,96453.81
2018-12-07T21:08:58.149Z,96439.70
2018-12-07T21:11:24.869Z,96435.52
2018-12-07T21:13:51.694Z,96434.99
2018-12-07T21:16:23.494Z,96424.53
2018-12-07T21:18:50.285Z,96415.91
2018-12-07T21:21:17.011Z,96406.50
2018-12-07T21:23:43.715Z,96396.30
2018-12-07T21:26:10.409Z,96393.17
2018-12-07T21:28:37.058Z,96402.05
2018-12-07T21:31:03.956Z,96409.38
2018-12-07T21:33:30.814Z,96396.30
2018-12-07T21:36:11.710Z,96391.05
2018-12-07T21:38:38.315Z,96399.44
2018-12-07T21:41:04.908Z,96398.92
2018-12-07T21:43:31.629Z,96398.92
2018-12-07T21:45:58.456Z,96395.52
2018-12-07T21:48:25.346Z,96398.13
2018-12-07T21:50:52.118Z,96401.53
2018-12-07T21:53:19.270Z,96399.44
2018-12-07T21:55:46.184Z,96399.44
2018-12-07T21:58:13.001Z,96419.31
2018-12-07T22:00:39.843Z,96415.64
2018-12-07T22:03:06.594Z,96424.01
2018-12-07T22:05:33.470Z,96421.14
2018-12-07T22:08:00.220Z,96441.27
2018-12-07T22:10:26.990Z,96453.81
2018-12-07T22:12:53.878Z,96467.14
2018-12-07T22:15:20.599Z,96484.66
2018-12-07T22:17:47.288Z,96502.70
2018-12-07T22:20:14.018Z,96514.72
2018-12-07T22:22:40.830Z,96524.66
2018-12-07T22:25:07.535Z,96509.23
2018-12-07T22:27:34.349Z,96501.13
2018-12-07T22:30:01.073Z,96506.62
2018-12-07T22:32:27.990Z,96509.75
2018-12-07T22:34:55.082Z,96501.64
2018-12-07T22:37:22.020Z,96508.45
2018-12-07T22:39:48.827Z,96499.55
2018-12-07T22:42:15.453Z,96502.95
2018-12-07T22:44:42.079Z,96505.05
2018-12-07T22:47:08.811Z,96510.28
2018-12-07T22:49:35.492Z,96506.35
2018-12-07T22:52:02.113Z,96505.56
2018-12-07T22:54:28.814Z,96516.29
2018-12-07T22:56:55.477Z,96515.23
2018-12-07T22:59:22.124Z,96507.39
2018-12-07T23:01:48.755Z,96508.97
2018-12-07T23:04:15.379Z,96516.02
2018-12-07T23:06:42.072Z,96508.44
2018-12-07T23:09:08.762Z,96513.14
2018-12-07T23:11:35.422Z,96518.64
2018-12-07T23:14:02.072Z,96538.24
2018-12-07T23:16:30.023Z,96545.56
2018-12-07T23:18:56.807Z,96577.72
2018-12-07T23:21:23.497Z,96559.41
2018-12-07T23:23:50.208Z,96564.64
2018-12-07T23:26:16.850Z,96567.52
2018-12-07T23:28:43.465Z,96556.80
2018-12-07T23:31:10.093Z,96551.56
2018-12-07T23:33:36.742Z,96567.77
2018-12-07T23:36:03.347Z,96563.85
2018-12-07T23:38:29.982Z,96580.33
2018-12-07T23:40:56.644Z,96588.69
2018-12-07T23:43:23.352Z,96601.76
2018-12-07T23:45:50.006Z,96616.41
2018-12-07T23:48:16.678Z,96616.41
2018-12-07T23:50:43.284Z,96614.04
2018-12-07T23:53:09.926Z,96599.93
2018-12-07T23:55:36.564Z,96608.83
2018-12-07T23:58:03.193Z,96602.28
